createdAt,value
2023-04-30T00:01:10.081Z,9.73
2023-04-30T00:03:37.236Z,10.77
2023-04-30T00:06:04.224Z,14.77
2023-04-30T00:08:31.279Z,12.30
2023-04-30T00:10:58.328Z,13.87
2023-04-30T00:13:25.547Z,9.77
2023-04-30T00:15:52.524Z,11.37
2023-04-30T00:18:19.434Z,9.73
2023-04-30T00:20:46.331Z,13.73
2023-04-30T00:23:13.311Z,13.47
2023-04-30T00:25:40.371Z,16.33
2023-04-30T00:28:07.236Z,14.33
2023-04-30T00:30:34.123Z,9.60
2023-04-30T00:33:01.050Z,12.40
2023-04-30T00:35:27.953Z,15.10
2023-04-30T00:37:54.773Z,14.07
2023-04-30T00:40:21.718Z,13.60
2023-04-30T00:42:48.990Z,13.20
2023-04-30T00:45:18.284Z,11.70
2023-04-30T00:47:45.302Z,13.93
2023-04-30T00:50:16.201Z,13.77
2023-04-30T00:52:44.862Z,10.70
2023-04-30T00:55:13.179Z,11.20
2023-04-30T00:57:43.976Z,15.67
2023-04-30T01:00:11.645Z,14.93
2023-04-30T01:02:39.151Z,13.63
2023-04-30T01:05:07.543Z,12.67
2023-04-30T01:07:45.329Z,10.27
2023-04-30T01:10:14.717Z,13.93
2023-04-30T01:12:52.279Z,10.93
2023-04-30T01:15:32.876Z,16.00
2023-04-30T01:18:09.453Z,13.43
2023-04-30T01:20:39.586Z,14.17
2023-04-30T01:23:28.125Z,14.60
2023-04-30T01:26:21.680Z,10.10
2023-04-30T01:28:51.640Z,11.67
2023-04-30T01:31:19.990Z,14.70
2023-04-30T01:33:47.222Z,11.50
2023-04-30T01:36:25.874Z,11.23
2023-04-30T01:39:17.596Z,11.33
2023-04-30T01:42:07.297Z,11.87
2023-04-30T01:44:46.219Z,9.93
2023-04-30T01:47:33.892Z,11.30
2023-04-30T01:50:31.805Z,10.90
2023-04-30T01:53:03.946Z,15.70
2023-04-30T01:55:57.435Z,10.13
2023-04-30T01:58:25.210Z,13.10
2023-04-30T02:00:52.506Z,12.13
2023-04-30T02:03:19.833Z,10.03
2023-04-30T02:05:47.947Z,9.13
2023-04-30T02:08:14.958Z,13.90
2023-04-30T02:10:41.969Z,9.97
2023-04-30T02:13:09.072Z,15.17
2023-04-30T02:15:36.058Z,12.73
2023-04-30T02:18:02.943Z,17.03
2023-04-30T02:20:29.890Z,11.00
2023-04-30T02:22:57.200Z,14.13
2023-04-30T02:25:24.164Z,11.57
2023-04-30T02:27:51.630Z,18.40
2023-04-30T02:30:20.380Z,20.13
2023-04-30T02:32:48.147Z,19.37
2023-04-30T02:35:15.148Z,20.27
2023-04-30T02:37:42.200Z,19.83
2023-04-30T02:40:09.645Z,22.57
2023-04-30T02:42:36.849Z,16.67
2023-04-30T02:45:03.976Z,16.50
2023-04-30T02:47:30.837Z,21.10
2023-04-30T02:49:57.790Z,17.00
2023-04-30T02:52:25.512Z,19.53
2023-04-30T02:54:57.125Z,18.93
2023-04-30T02:57:24.255Z,21.07
2023-04-30T02:59:51.267Z,25.07
2023-04-30T03:02:21.788Z,17.60
2023-04-30T03:04:48.940Z,18.37
2023-04-30T03:07:18.794Z,16.03
2023-04-30T03:09:46.951Z,17.37
2023-04-30T03:12:14.891Z,19.40
2023-04-30T03:14:42.102Z,19.37
2023-04-30T03:17:09.030Z,17.57
2023-04-30T03:19:36.094Z,19.57
2023-04-30T03:22:03.205Z,16.87
2023-04-30T03:24:30.416Z,18.17
2023-04-30T03:27:02.260Z,18.53
2023-04-30T03:29:29.340Z,17.17
2023-04-30T03:31:56.770Z,14.97
2023-04-30T03:34:23.741Z,18.40
2023-04-30T03:36:50.640Z,19.77
2023-04-30T03:39:17.581Z,16.13
2023-04-30T03:41:45.104Z,18.40
2023-04-30T03:44:16.252Z,17.33
2023-04-30T03:46:46.012Z,16.60
2023-04-30T03:49:13.204Z,19.63
2023-04-30T03:51:42.651Z,21.27
2023-04-30T03:54:09.807Z,18.40
2023-04-30T03:56:38.243Z,18.87
2023-04-30T03:59:06.530Z,17.40
2023-04-30T04:01:33.606Z,18.97
2023-04-30T04:04:02.538Z,18.37
2023-04-30T04:06:29.568Z,18.37
2023-04-30T04:08:56.622Z,19.73
2023-04-30T04:11:23.716Z,17.97
2023-04-30T04:13:50.621Z,16.33
2023-04-30T04:16:17.543Z,17.67
2023-04-30T04:18:44.809Z,23.43
2023-04-30T04:21:11.960Z,17.57
2023-04-30T04:23:38.852Z,19.13
2023-04-30T04:26:05.670Z,21.20
2023-04-30T04:28:33.015Z,18.37
2023-04-30T04:30:59.889Z,19.87
2023-04-30T04:33:26.769Z,18.47
2023-04-30T04:35:53.700Z,20.13
2023-04-30T04:38:21.021Z,17.40
2023-04-30T04:40:54.552Z,18.50
2023-04-30T04:43:22.240Z,15.20
2023-04-30T04:45:49.287Z,16.83
2023-04-30T04:48:16.264Z,11.93
2023-04-30T04:50:43.285Z,10.60
2023-04-30T04:53:10.286Z,7.87
2023-04-30T04:55:37.378Z,7.70
2023-04-30T04:58:04.533Z,7.53
2023-04-30T05:00:31.459Z,7.60
2023-04-30T05:02:58.568Z,6.60
2023-04-30T05:05:27.092Z,7.20
2023-04-30T05:07:55.339Z,6.77
2023-04-30T05:10:22.315Z,6.03
2023-04-30T05:12:49.090Z,6.13
2023-04-30T05:15:16.139Z,5.97
2023-04-30T05:17:43.161Z,7.60
2023-04-30T05:20:11.118Z,6.50
2023-04-30T05:22:38.106Z,7.40
2023-04-30T05:25:05.462Z,8.53
2023-04-30T05:27:32.347Z,6.07
2023-04-30T05:29:59.211Z,7.83
2023-04-30T05:32:28.065Z,6.03
2023-04-30T05:34:55.168Z,5.43
2023-04-30T05:37:22.942Z,8.77
2023-04-30T05:39:49.984Z,6.33
2023-04-30T05:42:17.000Z,6.77
2023-04-30T05:44:43.884Z,7.07
2023-04-30T05:47:10.780Z,6.23
2023-04-30T05:49:37.806Z,6.63
2023-04-30T05:52:05.106Z,7.30
2023-04-30T05:54:32.177Z,6.87
2023-04-30T05:56:59.283Z,4.97
2023-04-30T05:59:26.361Z,6.47
2023-04-30T06:01:53.372Z,5.67
2023-04-30T06:04:20.480Z,5.73
2023-04-30T06:06:47.531Z,6.07
2023-04-30T06:09:14.541Z,6.27
2023-04-30T06:11:42.634Z,4.37
2023-04-30T06:14:10.592Z,5.13
2023-04-30T06:16:38.301Z,6.13
2023-04-30T06:19:05.208Z,5.23
2023-04-30T06:21:32.080Z,7.60
2023-04-30T06:23:59.057Z,9.43
2023-04-30T06:26:26.620Z,7.17
2023-04-30T06:28:53.536Z,5.67
2023-04-30T06:31:23.629Z,6.80
2023-04-30T06:33:51.176Z,6.53
2023-04-30T06:36:18.773Z,5.50
2023-04-30T06:38:47.210Z,6.53
2023-04-30T06:41:15.304Z,7.93
2023-04-30T06:43:43.384Z,3.87
2023-04-30T06:46:10.755Z,5.40
2023-04-30T06:48:37.695Z,4.57
2023-04-30T06:51:04.698Z,4.93
2023-04-30T06:53:31.778Z,5.10
2023-04-30T06:55:58.842Z,7.93
2023-04-30T06:58:25.876Z,5.50
2023-04-30T07:00:53.116Z,7.57
2023-04-30T07:03:20.261Z,6.03
2023-04-30T07:05:50.517Z,5.23
2023-04-30T07:08:17.969Z,9.00
2023-04-30T07:10:45.020Z,8.40
2023-04-30T07:13:11.836Z,7.67
2023-04-30T07:15:38.788Z,7.13
2023-04-30T07:18:05.823Z,6.77
2023-04-30T07:20:32.757Z,6.13
2023-04-30T07:22:59.576Z,4.87
2023-04-30T07:25:26.451Z,3.60
2023-04-30T07:27:54.006Z,5.23
2023-04-30T07:30:21.859Z,7.07
2023-04-30T07:32:50.453Z,6.77
2023-04-30T07:35:18.178Z,5.20
2023-04-30T07:37:45.128Z,4.60
2023-04-30T07:40:22.033Z,6.77
2023-04-30T07:42:52.509Z,5.13
2023-04-30T07:45:19.391Z,6.80
2023-04-30T07:47:47.880Z,6.90
2023-04-30T07:50:15.197Z,6.97
2023-04-30T07:52:43.001Z,8.40
2023-04-30T07:55:10.614Z,3.03
2023-04-30T07:57:37.661Z,3.83
2023-04-30T08:00:05.270Z,6.17
2023-04-30T08:02:32.550Z,5.03
2023-04-30T08:04:59.679Z,3.50
2023-04-30T08:07:26.961Z,3.03
2023-04-30T08:09:54.183Z,5.27
2023-04-30T08:12:21.339Z,4.73
2023-04-30T08:14:48.298Z,5.30
2023-04-30T08:17:15.161Z,5.43
2023-04-30T08:19:42.079Z,5.33
2023-04-30T08:22:09.118Z,5.17
2023-04-30T08:24:35.966Z,4.90
2023-04-30T08:27:04.260Z,5.60
2023-04-30T08:29:31.270Z,4.93
2023-04-30T08:32:04.405Z,3.63
2023-04-30T08:34:34.784Z,5.57
2023-04-30T08:37:02.009Z,4.60
2023-04-30T08:39:28.938Z,5.10
2023-04-30T08:41:57.202Z,6.27
2023-04-30T08:44:24.365Z,7.00
2023-04-30T08:46:55.996Z,3.57
2023-04-30T08:49:24.745Z,4.63
2023-04-30T08:51:52.970Z,4.47
2023-04-30T08:54:19.876Z,3.10
2023-04-30T08:56:47.107Z,4.37
2023-04-30T08:59:14.305Z,5.10
2023-04-30T09:01:41.810Z,4.13
2023-04-30T09:04:09.090Z,6.47
2023-04-30T09:06:36.246Z,5.43
2023-04-30T09:09:13.104Z,3.93
2023-04-30T09:11:40.913Z,5.03
2023-04-30T09:14:08.696Z,4.43
2023-04-30T09:16:49.523Z,4.13
2023-04-30T09:19:30.770Z,4.97
2023-04-30T09:22:00.104Z,5.60
2023-04-30T09:24:47.579Z,5.33
2023-04-30T09:27:22.302Z,5.30
2023-04-30T09:29:49.625Z,5.67
2023-04-30T09:32:16.761Z,4.40
2023-04-30T09:34:43.922Z,5.87
2023-04-30T09:37:12.067Z,4.40
2023-04-30T09:39:59.362Z,6.93
2023-04-30T09:42:26.716Z,5.20
2023-04-30T09:44:54.096Z,4.43
2023-04-30T09:47:24.317Z,6.63
2023-04-30T09:49:52.595Z,4.20
2023-04-30T09:52:23.172Z,3.37
2023-04-30T09:54:50.276Z,6.63
2023-04-30T09:57:17.259Z,3.60
2023-04-30T09:59:46.429Z,2.93
2023-04-30T10:02:20.476Z,4.23
2023-04-30T10:04:54.605Z,4.03
2023-04-30T10:07:24.747Z,5.27
2023-04-30T10:09:59.604Z,5.77
2023-04-30T10:12:48.924Z,3.30
2023-04-30T10:15:20.475Z,5.27
2023-04-30T10:17:55.582Z,4.97
2023-04-30T10:20:24.946Z,4.73
2023-04-30T10:22:52.927Z,3.07
2023-04-30T10:25:20.373Z,4.33
2023-04-30T10:27:47.368Z,4.43
2023-04-30T10:30:15.604Z,3.70
2023-04-30T10:32:51.725Z,5.83
2023-04-30T10:35:27.843Z,7.00
2023-04-30T10:38:13.950Z,4.87
2023-04-30T10:40:40.910Z,4.80
2023-04-30T10:43:08.032Z,6.13
2023-04-30T10:45:37.816Z,7.33
2023-04-30T10:48:07.487Z,4.70
2023-04-30T10:50:45.970Z,5.07
2023-04-30T10:53:19.154Z,7.70
2023-04-30T10:56:09.922Z,4.70
2023-04-30T10:58:40.403Z,8.07
2023-04-30T11:01:15.906Z,4.83
2023-04-30T11:04:03.645Z,6.87
2023-04-30T11:06:53.787Z,5.30
2023-04-30T11:09:45.842Z,6.53
2023-04-30T11:12:21.069Z,7.27
2023-04-30T11:14:50.170Z,5.27
2023-04-30T11:17:24.805Z,5.90
2023-04-30T11:19:54.137Z,5.43
2023-04-30T11:22:25.145Z,5.40
2023-04-30T11:24:53.347Z,4.13
2023-04-30T11:27:34.345Z,5.20
2023-04-30T11:30:03.651Z,7.27
2023-04-30T11:32:35.299Z,5.83
2023-04-30T11:35:07.183Z,6.07
2023-04-30T11:37:39.355Z,5.10
2023-04-30T11:40:08.928Z,8.27
2023-04-30T11:42:35.981Z,4.83
2023-04-30T11:45:14.214Z,7.80
2023-04-30T11:47:49.729Z,4.30
2023-04-30T11:50:19.654Z,3.93
2023-04-30T11:52:51.157Z,7.73
2023-04-30T11:55:20.507Z,4.53
2023-04-30T11:57:49.754Z,6.43
2023-04-30T12:00:18.806Z,7.40
2023-04-30T12:02:48.215Z,5.73
2023-04-30T12:05:23.270Z,7.13
2023-04-30T12:08:01.728Z,4.47
2023-04-30T12:10:28.785Z,6.23
2023-04-30T12:12:56.446Z,7.23
2023-04-30T12:15:29.364Z,5.00
2023-04-30T12:17:58.330Z,6.93
2023-04-30T12:20:32.159Z,6.13
2023-04-30T12:22:59.290Z,6.33
2023-04-30T12:25:29.194Z,6.67
2023-04-30T12:27:59.284Z,5.40
2023-04-30T12:30:27.157Z,6.53
2023-04-30T12:32:57.305Z,9.37
2023-04-30T12:35:25.391Z,4.27
2023-04-30T12:37:54.786Z,5.50
2023-04-30T12:40:27.102Z,5.77
2023-04-30T12:43:10.814Z,5.90
2023-04-30T12:45:55.771Z,7.73
2023-04-30T12:48:24.757Z,9.90
2023-04-30T12:50:56.996Z,7.00
2023-04-30T12:53:24.573Z,7.37
2023-04-30T12:56:15.612Z,7.20
2023-04-30T12:58:49.940Z,7.17
2023-04-30T13:01:21.956Z,6.37
2023-04-30T13:03:49.074Z,8.63
2023-04-30T13:06:16.610Z,5.90
2023-04-30T13:08:57.840Z,8.80
2023-04-30T13:11:27.112Z,5.90
2023-04-30T13:13:55.912Z,8.87
2023-04-30T13:16:25.224Z,5.80
2023-04-30T13:18:53.062Z,5.67
2023-04-30T13:21:20.926Z,6.80
2023-04-30T13:23:52.885Z,4.20
2023-04-30T13:26:23.785Z,6.00
2023-04-30T13:28:51.385Z,5.80
2023-04-30T13:31:18.809Z,6.83
2023-04-30T13:33:45.782Z,6.90
2023-04-30T13:36:12.649Z,7.87
2023-04-30T13:38:39.870Z,7.47
2023-04-30T13:41:07.027Z,5.40
2023-04-30T13:43:34.324Z,6.00
2023-04-30T13:46:02.141Z,6.17
2023-04-30T13:48:29.369Z,5.40
2023-04-30T13:50:56.674Z,4.30
2023-04-30T13:53:23.851Z,6.83
2023-04-30T13:55:54.337Z,6.07
2023-04-30T13:58:21.687Z,4.83
2023-04-30T14:00:48.670Z,4.47
2023-04-30T14:03:15.718Z,5.97
2023-04-30T14:05:42.813Z,11.33
2023-04-30T14:08:12.942Z,8.27
2023-04-30T14:10:39.894Z,4.33
2023-04-30T14:13:06.982Z,6.37
2023-04-30T14:15:34.338Z,5.10
2023-04-30T14:18:04.065Z,4.77
2023-04-30T14:20:31.304Z,7.07
2023-04-30T14:22:58.462Z,7.57
2023-04-30T14:25:26.206Z,4.83
2023-04-30T14:27:53.137Z,4.60
2023-04-30T14:30:20.368Z,6.77
2023-04-30T14:32:47.423Z,4.63
2023-04-30T14:35:14.397Z,5.03
2023-04-30T14:37:41.443Z,6.20
2023-04-30T14:40:09.797Z,6.47
2023-04-30T14:42:36.721Z,5.10
2023-04-30T14:45:06.983Z,6.37
2023-04-30T14:47:34.289Z,6.60
2023-04-30T14:50:02.463Z,6.70
2023-04-30T14:52:29.594Z,3.90
2023-04-30T14:54:56.810Z,5.40
2023-04-30T14:57:23.973Z,6.40
2023-04-30T14:59:53.488Z,5.00
2023-04-30T15:02:21.972Z,4.60
2023-04-30T15:04:48.826Z,7.57
2023-04-30T15:07:15.818Z,4.70
2023-04-30T15:09:44.843Z,6.03
2023-04-30T15:12:11.893Z,5.17
2023-04-30T15:14:38.845Z,3.83
2023-04-30T15:17:06.291Z,5.37
2023-04-30T15:19:33.094Z,4.37
2023-04-30T15:22:00.133Z,6.23
2023-04-30T15:24:30.069Z,6.07
2023-04-30T15:26:57.794Z,4.70
2023-04-30T15:29:25.450Z,5.87
2023-04-30T15:31:53.099Z,5.13
2023-04-30T15:34:23.334Z,6.37
2023-04-30T15:36:50.633Z,5.70
2023-04-30T15:39:18.070Z,5.97
2023-04-30T15:41:45.392Z,3.43
2023-04-30T15:44:12.432Z,3.17
2023-04-30T15:46:39.447Z,4.43
2023-04-30T15:49:06.363Z,5.63
2023-04-30T15:51:34.498Z,5.13
2023-04-30T15:54:01.965Z,3.87
2023-04-30T15:56:30.990Z,6.07
2023-04-30T15:58:58.100Z,3.97
2023-04-30T16:01:25.122Z,6.70
2023-04-30T16:03:52.334Z,5.17
2023-04-30T16:06:20.066Z,5.90
2023-04-30T16:08:47.422Z,5.63
2023-04-30T16:11:22.882Z,6.17
2023-04-30T16:13:51.755Z,7.37
2023-04-30T16:16:19.007Z,4.97
2023-04-30T16:18:46.168Z,5.10
2023-04-30T16:21:13.435Z,7.67
2023-04-30T16:23:41.473Z,4.53
2023-04-30T16:26:08.435Z,3.83
2023-04-30T16:28:36.137Z,4.23
2023-04-30T16:31:03.706Z,8.07
2023-04-30T16:33:31.075Z,7.60
2023-04-30T16:35:58.380Z,3.83
2023-04-30T16:38:25.366Z,4.43
2023-04-30T16:40:52.538Z,5.50
2023-04-30T16:43:19.409Z,4.00
2023-04-30T16:45:46.913Z,6.03
2023-04-30T16:48:13.897Z,5.77
2023-04-30T16:50:43.344Z,6.07
2023-04-30T16:53:11.114Z,7.33
2023-04-30T16:55:38.127Z,9.30
2023-04-30T16:58:05.199Z,5.33
2023-04-30T17:00:32.173Z,10.07
2023-04-30T17:02:59.288Z,3.77
2023-04-30T17:05:26.341Z,6.23
2023-04-30T17:07:53.228Z,7.77
2023-04-30T17:10:24.778Z,6.07
2023-04-30T17:12:52.559Z,4.90
2023-04-30T17:15:21.960Z,5.40
2023-04-30T17:17:49.053Z,9.80
2023-04-30T17:20:15.897Z,4.97
2023-04-30T17:22:42.969Z,5.37
2023-04-30T17:25:10.228Z,5.00
2023-04-30T17:27:37.813Z,8.60
2023-04-30T17:30:05.245Z,4.87
2023-04-30T17:32:32.151Z,5.13
2023-04-30T17:35:00.275Z,5.67
2023-04-30T17:37:27.405Z,6.33
2023-04-30T17:39:55.948Z,5.90
2023-04-30T17:42:22.929Z,6.73
2023-04-30T17:44:50.361Z,5.57
2023-04-30T17:47:18.208Z,6.40
2023-04-30T17:49:49.086Z,5.57
2023-04-30T17:52:15.994Z,7.63
2023-04-30T17:54:43.110Z,6.17
2023-04-30T17:57:09.922Z,6.23
2023-04-30T17:59:39.067Z,4.97
2023-04-30T18:02:06.137Z,6.70
2023-04-30T18:04:33.522Z,5.33
2023-04-30T18:07:00.416Z,6.83
2023-04-30T18:09:27.563Z,5.63
2023-04-30T18:11:54.659Z,6.23
2023-04-30T18:14:21.468Z,5.97
2023-04-30T18:16:48.452Z,6.73
2023-04-30T18:19:15.552Z,5.90
2023-04-30T18:21:42.522Z,5.60
2023-04-30T18:24:09.496Z,10.47
2023-04-30T18:26:39.824Z,10.23
2023-04-30T18:29:06.842Z,8.43
2023-04-30T18:31:33.763Z,10.17
2023-04-30T18:34:00.733Z,9.70
2023-04-30T18:36:28.419Z,8.97
2023-04-30T18:38:57.505Z,8.00
2023-04-30T18:41:27.830Z,7.90
2023-04-30T18:43:54.633Z,7.73
2023-04-30T18:46:23.585Z,8.60
2023-04-30T18:48:50.650Z,10.37
2023-04-30T18:51:17.524Z,8.57
2023-04-30T18:53:45.467Z,11.53
2023-04-30T18:56:12.919Z,10.07
2023-04-30T18:58:39.991Z,10.37
2023-04-30T19:01:10.934Z,7.90
2023-04-30T19:03:38.248Z,10.73
2023-04-30T19:06:05.239Z,14.47
2023-04-30T19:08:32.670Z,18.67
2023-04-30T19:10:59.632Z,17.57
2023-04-30T19:13:27.985Z,20.60
2023-04-30T19:15:55.239Z,21.43
2023-04-30T19:18:24.645Z,18.67
2023-04-30T19:21:00.265Z,23.13
2023-04-30T19:23:30.800Z,22.70
2023-04-30T19:25:59.135Z,19.73
2023-04-30T19:28:26.262Z,21.20
2023-04-30T19:30:54.989Z,22.73
2023-04-30T19:33:25.385Z,19.37
2023-04-30T19:35:57.864Z,21.27
2023-04-30T19:38:25.013Z,23.73
2023-04-30T19:40:54.508Z,21.10
2023-04-30T19:43:23.616Z,17.27
2023-04-30T19:45:54.409Z,21.07
2023-04-30T19:48:25.730Z,21.33
2023-04-30T19:50:54.212Z,19.60
2023-04-30T19:53:21.824Z,22.53
2023-04-30T19:55:49.001Z,22.37
2023-04-30T19:58:15.967Z,26.47
2023-04-30T20:00:45.474Z,27.70
2023-04-30T20:03:16.683Z,29.97
2023-04-30T20:05:45.212Z,28.90
2023-04-30T20:08:12.584Z,29.20
2023-04-30T20:10:41.263Z,25.17
2023-04-30T20:13:09.680Z,20.93
2023-04-30T20:15:37.082Z,21.50
2023-04-30T20:18:06.158Z,19.37
2023-04-30T20:20:33.562Z,24.50
2023-04-30T20:23:14.502Z,22.43
2023-04-30T20:25:48.097Z,23.13
2023-04-30T20:28:16.639Z,26.60
2023-04-30T20:30:44.381Z,26.77
2023-04-30T20:33:12.670Z,25.40
2023-04-30T20:35:45.704Z,28.30
2023-04-30T20:38:13.551Z,24.27
2023-04-30T20:40:41.302Z,25.13
2023-04-30T20:43:10.593Z,25.43
2023-04-30T20:45:39.594Z,25.33
2023-04-30T20:48:07.791Z,25.23
2023-04-30T20:50:35.412Z,25.87
2023-04-30T20:53:02.403Z,25.90
2023-04-30T20:55:29.912Z,28.50
2023-04-30T20:57:57.259Z,27.97
2023-04-30T21:00:24.510Z,26.60
2023-04-30T21:02:54.078Z,28.70
2023-04-30T21:05:21.614Z,27.70
2023-04-30T21:07:48.687Z,27.00
2023-04-30T21:10:18.394Z,25.97
2023-04-30T21:12:45.194Z,25.30
2023-04-30T21:15:13.239Z,31.70
2023-04-30T21:17:40.209Z,28.90
2023-04-30T21:20:07.859Z,29.93
2023-04-30T21:22:35.183Z,33.23
2023-04-30T21:25:01.999Z,29.97
2023-04-30T21:27:28.971Z,32.50
2023-04-30T21:29:56.201Z,34.73
2023-04-30T21:32:23.753Z,31.27
2023-04-30T21:34:50.847Z,35.27
2023-04-30T21:37:18.212Z,28.80
2023-04-30T21:39:46.176Z,28.87
2023-04-30T21:42:13.120Z,31.13
2023-04-30T21:44:40.087Z,28.50
2023-04-30T21:47:10.901Z,28.07
2023-04-30T21:49:38.004Z,31.80
2023-04-30T21:52:08.310Z,27.87
2023-04-30T21:54:35.230Z,27.53
2023-04-30T21:57:02.912Z,29.37
2023-04-30T21:59:30.084Z,27.57
2023-04-30T22:02:03.064Z,29.23
2023-04-30T22:04:33.557Z,29.23
2023-04-30T22:07:00.980Z,30.03
2023-04-30T22:09:27.840Z,31.70
2023-04-30T22:11:54.958Z,30.17
2023-04-30T22:14:22.013Z,26.30
2023-04-30T22:16:52.031Z,28.30
2023-04-30T22:19:19.153Z,27.37
2023-04-30T22:21:46.491Z,30.10
2023-04-30T22:24:14.862Z,27.33
2023-04-30T22:26:41.876Z,29.40
2023-04-30T22:29:09.205Z,27.67
2023-04-30T22:31:36.226Z,31.83
2023-04-30T22:34:03.587Z,27.27
2023-04-30T22:36:30.864Z,27.47
2023-04-30T22:38:57.831Z,28.37
2023-04-30T22:41:28.290Z,24.93
2023-04-30T22:43:55.447Z,26.57
2023-04-30T22:46:22.777Z,24.67
2023-04-30T22:48:49.834Z,25.80
2023-04-30T22:51:18.379Z,28.07
2023-04-30T22:53:48.002Z,26.93
2023-04-30T22:56:15.922Z,27.57
2023-04-30T22:58:42.986Z,28.10
2023-04-30T23:01:10.050Z,28.20
2023-04-30T23:03:38.805Z,30.70
2023-04-30T23:06:06.185Z,29.67
2023-04-30T23:08:34.054Z,31.93
2023-04-30T23:11:01.839Z,26.53
2023-04-30T23:13:28.738Z,25.53
2023-04-30T23:15:59.778Z,28.50
2023-04-30T23:18:26.964Z,29.63
2023-04-30T23:20:59.579Z,35.43
2023-04-30T23:23:27.883Z,26.30
2023-04-30T23:25:55.662Z,25.13
2023-04-30T23:28:26.262Z,25.10
2023-04-30T23:30:58.805Z,26.03
2023-04-30T23:33:26.341Z,28.70
2023-04-30T23:35:54.052Z,26.63
2023-04-30T23:38:24.225Z,24.60
2023-04-30T23:40:51.417Z,29.33
2023-04-30T23:43:18.612Z,27.53
2023-04-30T23:45:45.583Z,30.33
2023-04-30T23:48:12.811Z,31.17
2023-04-30T23:50:40.600Z,28.57
2023-04-30T23:53:08.038Z,27.77
2023-04-30T23:55:35.262Z,28.33
2023-04-30T23:58:02.334Z,27.33
